Time;durP1;ratioP1;P1;durP2;ratioP2;P2;SDS_P1;SDS_P2;PMS_P1;PMS_P2;Temp;Humidity;BMP_temperature;BMP_pressure;BME280_temperature;BME280_humidity;BME280_pressure;Samples;Min_cycle;Max_cycle;Signal;HPM_P1;HPM_P2
2022/08/22 00:02:25;;;;;;;13.75;3.60;;;;;;;-145.81;100.00;62408.38;5060417;28;20040;-77
2022/08/22 00:05:04;;;;;;;14.40;4.05;;;;;;;-145.81;100.00;62408.38;5046755;28;20510;-77
2022/08/22 00:07:54;;;;;;;9.63;3.53;;;;;;;-145.81;100.00;62408.38;5063935;28;20034;-77
2022/08/22 00:10:26;;;;;;;10.63;3.88;;;;;;;-145.81;100.00;62408.38;5051741;28;20115;-77
2022/08/22 00:13:11;;;;;;;12.70;4.25;;;;;;;-145.81;100.00;62408.38;5064912;28;20068;-78
2022/08/22 00:15:43;;;;;;;13.15;4.05;;;;;;;-145.81;100.00;62408.38;5074218;28;20082;-76
2022/08/22 00:18:12;;;;;;;11.75;3.72;;;;;;;-145.81;100.00;62408.38;5074722;28;20156;-78
2022/08/22 00:20:51;;;;;;;8.10;3.70;;;;;;;-145.81;100.00;62408.38;5053448;28;20125;-78
2022/08/22 00:23:20;;;;;;;15.75;4.13;;;;;;;-145.81;100.00;62408.38;5083099;28;20040;-77
2022/08/22 00:25:53;;;;;;;14.23;4.40;;;;;;;-145.81;100.00;62408.38;5052063;28;20044;-77
2022/08/22 00:28:30;;;;;;;12.98;4.85;;;;;;;-145.81;100.00;62408.38;5034930;28;20033;-78
2022/08/22 00:31:16;;;;;;;9.48;3.42;;;;;;;-145.81;100.00;62408.38;5046744;28;20039;-78
2022/08/22 00:33:48;;;;;;;9.27;3.67;;;;;;;-145.81;100.00;62408.38;5050829;28;20043;-76
2022/08/22 00:36:28;;;;;;;17.88;4.03;;;;;;;-145.81;100.00;62408.38;5069562;28;20082;-77
2022/08/22 00:39:36;;;;;;;10.48;3.38;;;;;;;-145.81;100.00;62408.38;5073285;28;20054;-78
2022/08/22 00:42:22;;;;;;;9.40;3.55;;;;;;;-145.81;100.00;62408.38;5028525;28;20056;-77
2022/08/22 00:45:15;;;;;;;14.82;4.00;;;;;;;-145.81;100.00;62408.38;5073332;28;20035;-77
2022/08/22 00:48:02;;;;;;;9.88;3.33;;;;;;;-145.81;100.00;62408.38;5060611;28;20040;-76
2022/08/22 00:51:05;;;;;;;10.00;3.70;;;;;;;-145.81;100.00;62408.38;5050702;28;20039;-77
2022/08/22 00:53:51;;;;;;;13.82;4.75;;;;;;;-145.81;100.00;62408.38;5061712;28;20032;-78
2022/08/22 00:56:45;;;;;;;15.48;3.75;;;;;;;-145.81;100.00;62408.38;5051161;28;20036;-77
2022/08/22 00:59:32;;;;;;;13.07;3.92;;;;;;;-145.81;100.00;62408.38;5072304;28;20760;-76
2022/08/22 01:02:09;;;;;;;6.90;3.13;;;;;;;-145.81;100.00;62408.38;5058121;28;20097;-77
2022/08/22 01:05:00;;;;;;;8.30;3.85;;;;;;;-145.81;100.00;62408.38;5061122;28;20029;-78
2022/08/22 01:07:56;;;;;;;8.13;3.42;;;;;;;-145.81;100.00;62408.38;5058259;28;20514;-78
2022/08/22 01:10:40;;;;;;;10.60;4.35;;;;;;;-145.81;100.00;62408.38;5074496;28;20036;-75
2022/08/22 01:13:30;;;;;;;11.05;4.43;;;;;;;-145.81;100.00;62408.38;5059218;28;20044;-78
2022/08/22 01:16:13;;;;;;;12.02;4.60;;;;;;;-145.81;100.00;62408.38;5069497;28;20048;-77
2022/08/22 01:18:51;;;;;;;11.38;5.18;;;;;;;-145.81;100.00;62408.38;5059252;28;20028;-77
2022/08/22 01:21:54;;;;;;;10.98;4.22;;;;;;;-145.81;100.00;62408.38;5073009;28;20055;-75
2022/08/22 01:25:16;;;;;;;8.20;3.50;;;;;;;-145.81;100.00;62408.38;5059634;28;20123;-77
2022/08/22 01:27:40;;;;;;;10.60;3.75;;;;;;;-145.81;100.00;62408.38;5045132;28;20053;-78
2022/08/22 01:30:16;;;;;;;10.98;3.92;;;;;;;-145.81;100.00;62408.38;5029181;28;20041;-78
2022/08/22 01:33:06;;;;;;;12.20;5.03;;;;;;;-145.81;100.00;62408.38;5038074;28;20049;-78
2022/08/22 01:35:34;;;;;;;11.00;2.92;;;;;;;-145.81;100.00;62408.38;5037595;28;20131;-76
2022/08/22 01:38:02;;;;;;;20.20;4.15;;;;;;;-145.81;100.00;62408.38;5029677;28;20406;-78
2022/08/22 01:40:39;;;;;;;16.05;3.72;;;;;;;-145.81;100.00;62408.38;5046090;28;20041;-77
2022/08/22 01:43:14;;;;;;;7.38;4.43;;;;;;;-145.81;100.00;62408.38;5029353;28;20048;-76
2022/08/22 01:45:56;;;;;;;9.75;4.28;;;;;;;-145.81;100.00;62408.38;5045829;28;20052;-78
2022/08/22 01:48:34;;;;;;;8.43;3.78;;;;;;;-145.81;100.00;62408.38;5029436;28;20076;-76
2022/08/22 01:51:18;;;;;;;8.73;3.42;;;;;;;-145.81;100.00;62408.38;5046065;28;20033;-77
2022/08/22 01:53:56;;;;;;;7.70;3.50;;;;;;;-145.81;100.00;62408.38;5029409;28;20049;-76
2022/08/22 01:56:24;;;;;;;12.35;4.32;;;;;;;-145.81;100.00;62408.38;5028035;28;20063;-76
2022/08/22 01:59:04;;;;;;;8.27;3.42;;;;;;;-145.81;100.00;62408.38;5038949;28;20029;-76
2022/08/22 02:01:33;;;;;;;9.43;4.40;;;;;;;-145.81;100.00;62408.38;5045306;28;20024;-78
2022/08/22 02:04:25;;;;;;;12.35;4.15;;;;;;;-145.81;100.00;62408.38;5063912;28;20029;-78
2022/08/22 02:07:45;;;;;;;10.40;4.72;;;;;;;-145.81;100.00;62408.38;5026611;28;20052;-77
2022/08/22 02:10:37;;;;;;;8.27;3.85;;;;;;;-145.81;100.00;62408.38;5003592;28;20037;-78
2022/08/22 02:13:11;;;;;;;12.02;3.38;;;;;;;-145.81;100.00;62408.38;5070733;28;20048;-76
2022/08/22 02:15:40;;;;;;;8.80;4.10;;;;;;;-145.81;100.00;62408.38;5061478;28;20032;-78
2022/08/22 02:18:05;;;;;;;11.00;4.00;;;;;;;-145.81;100.00;62408.38;5054026;28;20024;-78
2022/08/22 02:20:56;;;;;;;13.13;4.50;;;;;;;-145.81;100.00;62408.38;5072363;28;20127;-78
2022/08/22 02:23:24;;;;;;;9.02;3.78;;;;;;;-145.81;100.00;62408.38;5070897;28;20046;-76
2022/08/22 02:26:01;;;;;;;8.88;3.80;;;;;;;-145.81;100.00;62408.38;5062915;28;20425;-78
2022/08/22 02:28:45;;;;;;;9.82;4.30;;;;;;;-145.81;100.00;62408.38;5071302;28;20036;-78
2022/08/22 02:31:24;;;;;;;7.60;4.07;;;;;;;-145.81;100.00;62408.38;5066242;28;20781;-76
2022/08/22 02:33:57;;;;;;;9.55;5.30;;;;;;;-145.81;100.00;62408.38;5064259;28;20040;-78
2022/08/22 02:36:44;;;;;;;11.75;3.67;;;;;;;-145.81;100.00;62408.38;5060584;28;20582;-76
2022/08/22 02:39:20;;;;;;;10.73;4.13;;;;;;;-145.81;100.00;62408.38;5073161;28;20036;-78
2022/08/22 02:42:05;;;;;;;13.52;5.03;;;;;;;-145.81;100.00;62408.38;5079737;28;20119;-77
2022/08/22 02:44:38;;;;;;;12.23;4.97;;;;;;;-145.81;100.00;62408.38;5061122;28;20473;-78
2022/08/22 02:47:39;;;;;;;15.82;4.75;;;;;;;-145.81;100.00;62408.38;5060841;28;20029;-78
2022/08/22 02:50:35;;;;;;;13.88;4.80;;;;;;;-145.81;100.00;62408.38;5050965;28;20071;-77
2022/08/22 02:53:31;;;;;;;14.63;4.93;;;;;;;-145.81;100.00;62408.38;5067573;28;20102;-76
2022/08/22 02:56:05;;;;;;;12.65;4.30;;;;;;;-145.81;100.00;62408.38;5066080;28;20070;-76
2022/08/22 02:58:33;;;;;;;10.70;3.83;;;;;;;-145.81;100.00;62408.38;5071824;28;20028;-78
2022/08/22 03:01:02;;;;;;;6.90;4.53;;;;;;;-145.81;100.00;62408.38;5075801;28;20020;-78
2022/08/22 03:03:34;;;;;;;10.57;4.32;;;;;;;-145.81;100.00;62408.38;5071925;28;20063;-76
2022/08/22 03:06:32;;;;;;;7.82;3.85;;;;;;;-145.81;100.00;62408.38;5070437;28;20048;-78
2022/08/22 03:09:06;;;;;;;7.88;4.32;;;;;;;-145.81;100.00;62408.38;5053554;28;20053;-77
2022/08/22 03:11:38;;;;;;;10.55;4.35;;;;;;;-145.81;100.00;62408.38;5058511;28;20520;-77
2022/08/22 03:14:12;;;;;;;10.95;4.40;;;;;;;-145.81;100.00;62408.38;5050330;28;20540;-77
2022/08/22 03:17:06;;;;;;;12.75;4.18;;;;;;;-145.81;100.00;62408.38;5059521;28;20033;-77
2022/08/22 03:19:56;;;;;;;10.20;4.50;;;;;;;-145.81;100.00;62408.38;5044881;28;20036;-78
2022/08/22 03:22:46;;;;;;;11.25;4.22;;;;;;;-145.81;100.00;62408.38;5052940;28;20036;-76
2022/08/22 03:25:32;;;;;;;7.13;4.03;;;;;;;-145.81;100.00;62408.38;5050527;28;20135;-76
2022/08/22 03:28:07;;;;;;;11.90;4.53;;;;;;;-145.81;100.00;62408.38;5047001;28;20570;-76
2022/08/22 03:30:40;;;;;;;9.45;4.38;;;;;;;-145.81;100.00;62408.38;5045148;28;20028;-78
2022/08/22 03:33:21;;;;;;;9.18;4.35;;;;;;;-145.81;100.00;62408.38;5070382;28;20028;-78
2022/08/22 03:35:46;;;;;;;13.73;5.78;;;;;;;-145.81;100.00;62408.38;5069383;28;20036;-77
2022/08/22 03:38:16;;;;;;;6.47;4.00;;;;;;;-145.81;100.00;62408.38;5052429;28;20535;-77
2022/08/22 03:41:02;;;;;;;8.10;4.10;;;;;;;-145.81;100.00;62408.38;5060665;28;20075;-77
2022/08/22 03:43:56;;;;;;;8.65;4.57;;;;;;;-145.81;100.00;62408.38;5081150;28;20036;-78
2022/08/22 03:46:50;;;;;;;9.77;4.60;;;;;;;-145.81;100.00;62408.38;5046600;28;20420;-77
2022/08/22 03:49:18;;;;;;;12.10;5.07;;;;;;;-145.81;100.00;62408.38;5077976;28;21195;-78
2022/08/22 03:52:12;;;;;;;11.77;5.32;;;;;;;-145.81;100.00;62408.38;5073307;28;20024;-78
2022/08/22 03:55:01;;;;;;;9.13;3.90;;;;;;;-145.81;100.00;62408.38;5070258;28;20051;-77
2022/08/22 03:57:33;;;;;;;11.52;4.38;;;;;;;-145.81;100.00;62408.38;5056001;28;20032;-77
2022/08/22 04:00:37;;;;;;;8.50;4.40;;;;;;;-145.81;100.00;62408.38;5079481;28;20041;-78
2022/08/22 04:03:22;;;;;;;10.13;4.32;;;;;;;-145.81;100.00;62408.38;5043465;28;20072;-77
2022/08/22 04:06:09;;;;;;;8.10;3.85;;;;;;;-145.81;100.00;62408.38;5062928;28;20040;-77
2022/08/22 04:09:12;;;;;;;14.20;4.32;;;;;;;-145.81;100.00;62408.38;5074943;28;20112;-78
2022/08/22 04:12:03;;;;;;;14.48;3.72;;;;;;;-145.81;100.00;62408.38;5045120;28;20039;-77
2022/08/22 04:14:38;;;;;;;9.65;3.83;;;;;;;-145.81;100.00;62408.38;5052102;28;20165;-78
2022/08/22 04:17:35;;;;;;;8.93;3.83;;;;;;;-145.81;100.00;62408.38;5051352;28;20489;-78
2022/08/22 04:20:42;;;;;;;8.55;3.80;;;;;;;-145.81;100.00;62408.38;5059554;28;20876;-78
2022/08/22 04:23:31;;;;;;;7.90;4.25;;;;;;;-145.81;100.00;62408.38;5012879;28;20048;-77
2022/08/22 04:26:10;;;;;;;7.35;3.78;;;;;;;-145.81;100.00;62408.38;5061696;28;20052;-78
2022/08/22 04:28:46;;;;;;;9.55;3.63;;;;;;;-145.81;100.00;62408.38;5061265;28;20028;-76
2022/08/22 04:31:17;;;;;;;11.73;3.38;;;;;;;-145.81;100.00;62408.38;5080830;28;20126;-77
2022/08/22 04:34:06;;;;;;;8.20;3.90;;;;;;;-145.81;100.00;62408.38;5060506;28;20512;-78
2022/08/22 04:36:39;;;;;;;10.00;3.63;;;;;;;-145.81;100.00;62408.38;5057596;28;20029;-75
2022/08/22 04:39:22;;;;;;;6.75;3.30;;;;;;;-145.81;100.00;62408.38;5075356;28;20166;-77
2022/08/22 04:41:54;;;;;;;13.45;4.47;;;;;;;-145.81;100.00;62408.38;5068075;28;20029;-77
2022/08/22 04:44:29;;;;;;;6.65;3.40;;;;;;;-145.81;100.00;62408.38;5051809;28;20029;-78
2022/08/22 04:46:54;;;;;;;6.22;2.95;;;;;;;-145.81;100.00;62408.38;5051776;28;20105;-77
2022/08/22 04:49:34;;;;;;;10.60;3.17;;;;;;;-145.81;100.00;62408.38;5051472;28;20478;-77
2022/08/22 04:52:25;;;;;;;7.68;3.65;;;;;;;-145.81;100.00;62408.38;5068335;28;20035;-78
2022/08/22 04:55:13;;;;;;;8.05;3.08;;;;;;;-145.81;100.00;62408.38;5062572;28;20044;-76
2022/08/22 04:58:03;;;;;;;11.43;2.83;;;;;;;-145.81;100.00;62408.38;5057576;28;20512;-77
2022/08/22 05:00:40;;;;;;;5.70;3.05;;;;;;;-145.81;100.00;62408.38;5068165;28;20100;-76
2022/08/22 05:03:11;;;;;;;6.53;3.40;;;;;;;-145.81;100.00;62408.38;5083342;28;20051;-76
2022/08/22 05:05:39;;;;;;;11.82;3.40;;;;;;;-145.81;100.00;62408.38;5081255;28;20028;-76
2022/08/22 05:08:08;;;;;;;8.43;3.47;;;;;;;-145.81;100.00;62408.38;5070095;28;20217;-78
2022/08/22 05:10:39;;;;;;;7.25;2.60;;;;;;;-145.81;100.00;62408.38;5058760;28;20397;-78
2022/08/22 05:13:15;;;;;;;6.10;2.78;;;;;;;-145.81;100.00;62408.38;5068949;28;20039;-76
2022/08/22 05:15:45;;;;;;;11.00;2.92;;;;;;;-145.81;100.00;62408.38;5052413;28;20174;-78
2022/08/22 05:18:34;;;;;;;7.32;2.80;;;;;;;-145.81;100.00;62408.38;5069084;28;20043;-76
2022/08/22 05:21:04;;;;;;;8.15;2.85;;;;;;;-145.81;100.00;62408.38;5069560;28;20039;-78
2022/08/22 05:23:38;;;;;;;4.15;2.60;;;;;;;-145.81;100.00;62408.38;5061270;28;20073;-77
2022/08/22 05:26:05;;;;;;;7.03;2.85;;;;;;;-145.81;100.00;62408.38;5050965;28;20034;-77
2022/08/22 05:28:37;;;;;;;4.32;2.50;;;;;;;-145.81;100.00;62408.38;5067062;28;20126;-76
2022/08/22 05:31:35;;;;;;;8.65;2.72;;;;;;;-145.81;100.00;62408.38;5067345;28;20116;-76
2022/08/22 05:34:05;;;;;;;8.38;2.88;;;;;;;-145.81;100.00;62408.38;5069033;28;20048;-76
2022/08/22 05:36:35;;;;;;;5.68;2.30;;;;;;;-145.81;100.00;62408.38;5042747;28;20071;-78
2022/08/22 05:39:22;;;;;;;8.23;2.85;;;;;;;-145.81;100.00;62408.38;5059195;28;20033;-75
2022/08/22 05:41:49;;;;;;;6.28;2.90;;;;;;;-145.81;100.00;62408.38;5057194;28;20470;-77
2022/08/22 05:44:24;;;;;;;5.32;2.10;;;;;;;-145.81;100.00;62408.38;5066337;28;20028;-77
2022/08/22 05:47:21;;;;;;;6.47;2.00;;;;;;;-145.81;100.00;62408.38;5067865;28;20040;-76
2022/08/22 05:50:03;;;;;;;5.97;2.92;;;;;;;-145.81;100.00;62408.38;5057934;28;20128;-77
2022/08/22 05:53:01;;;;;;;2.85;2.05;;;;;;;-145.81;100.00;62408.38;5060502;28;20035;-77
2022/08/22 05:55:31;;;;;;;3.30;2.05;;;;;;;-145.81;100.00;62408.38;5060816;28;20036;-76
2022/08/22 05:58:38;;;;;;;7.07;2.30;;;;;;;-145.81;100.00;62408.38;5062763;28;20584;-77
2022/08/22 06:01:12;;;;;;;5.03;2.15;;;;;;;-145.81;100.00;62408.38;4983390;28;20514;-76
2022/08/22 06:03:51;;;;;;;2.70;2.00;;;;;;;-145.81;100.00;62408.38;4983532;28;20041;-77
2022/08/22 06:06:18;;;;;;;3.20;1.50;;;;;;;-145.81;100.00;62408.38;4983112;28;20050;-77
2022/08/22 06:09:00;;;;;;;6.07;1.60;;;;;;;-145.81;100.00;62408.38;4983442;28;20085;-76
2022/08/22 06:11:31;;;;;;;6.68;2.20;;;;;;;-145.81;100.00;62408.38;4982762;28;20049;-76
2022/08/22 06:14:04;;;;;;;3.17;1.67;;;;;;;-145.81;100.00;62408.38;4983219;28;20128;-77
2022/08/22 06:17:05;;;;;;;6.28;2.30;;;;;;;-145.81;100.00;62408.38;4983176;28;20082;-75
2022/08/22 06:19:35;;;;;;;6.38;1.92;;;;;;;-145.81;100.00;62408.38;4966259;28;20061;-78
2022/08/22 06:22:02;;;;;;;6.82;2.17;;;;;;;-145.81;100.00;62408.38;4983204;28;20043;-76
2022/08/22 06:24:32;;;;;;;6.60;2.10;;;;;;;-145.81;100.00;62408.38;4971529;28;20089;-77
2022/08/22 06:27:04;;;;;;;9.38;2.10;;;;;;;-145.81;100.00;62408.38;4983062;28;20046;-77
2022/08/22 06:29:35;;;;;;;4.80;2.08;;;;;;;-145.81;100.00;62408.38;4982682;28;20406;-77
2022/08/22 06:32:09;;;;;;;6.80;1.92;;;;;;;-145.81;100.00;62408.38;5031214;28;20040;-77
2022/08/22 06:34:38;;;;;;;6.82;2.03;;;;;;;-145.81;100.00;62408.38;5072313;28;20032;-77
2022/08/22 06:37:08;;;;;;;5.95;2.25;;;;;;;-145.81;100.00;62408.38;5079528;28;20060;-77
2022/08/22 06:39:37;;;;;;;7.68;1.75;;;;;;;-145.81;100.00;62408.38;5077642;28;20029;-77
2022/08/22 06:42:10;;;;;;;5.03;1.70;;;;;;;-145.81;100.00;62408.38;5080483;28;20085;-78
2022/08/22 06:44:56;;;;;;;6.75;2.10;;;;;;;-145.81;100.00;62408.38;5078703;28;20056;-77
2022/08/22 06:47:26;;;;;;;4.25;1.80;;;;;;;-145.81;100.00;62408.38;5065250;28;20074;-77
2022/08/22 06:49:58;;;;;;;8.38;2.00;;;;;;;-145.81;100.00;62408.38;5042722;28;20032;-77
2022/08/22 06:52:27;;;;;;;5.50;2.00;;;;;;;-145.81;100.00;62408.38;5046068;28;21259;-78
2022/08/22 06:55:11;;;;;;;6.90;1.73;;;;;;;-145.81;100.00;62408.38;5059011;28;20032;-78
2022/08/22 06:57:52;;;;;;;5.72;1.80;;;;;;;-145.81;100.00;62408.38;5066313;28;20170;-79
2022/08/22 07:00:18;;;;;;;8.55;2.05;;;;;;;-145.81;100.00;62408.38;5068639;28;20115;-78
2022/08/22 07:03:13;;;;;;;7.30;2.03;;;;;;;-145.81;100.00;62408.38;5071480;28;20225;-76
2022/08/22 07:05:41;;;;;;;4.60;1.77;;;;;;;-145.81;100.00;62408.38;5077204;28;20406;-77
2022/08/22 07:08:12;;;;;;;6.85;1.35;;;;;;;-145.81;100.00;62408.38;5069599;28;20477;-77
2022/08/22 07:10:43;;;;;;;2.88;1.35;;;;;;;-145.81;100.00;62408.38;5081496;28;20119;-78
2022/08/22 07:13:15;;;;;;;8.60;1.65;;;;;;;-145.81;100.00;62408.38;5082636;28;20031;-77
2022/08/22 07:15:41;;;;;;;6.32;1.73;;;;;;;-145.81;100.00;62408.38;5082353;28;20412;-76
2022/08/22 07:18:16;;;;;;;5.25;1.80;;;;;;;-145.81;100.00;62408.38;5082937;28;20024;-78
2022/08/22 07:20:48;;;;;;;9.85;2.08;;;;;;;-145.81;100.00;62408.38;5084387;28;20516;-77
2022/08/22 07:23:28;;;;;;;9.30;2.92;;;;;;;-145.81;100.00;62408.38;5065738;28;20063;-77
2022/08/22 07:26:06;;;;;;;4.03;1.70;;;;;;;-145.81;100.00;62408.38;5061623;28;20464;-77
2022/08/22 07:28:53;;;;;;;7.63;2.45;;;;;;;-145.81;100.00;62408.38;5078524;28;20060;-77
2022/08/22 07:31:41;;;;;;;9.43;2.35;;;;;;;-145.81;100.00;62408.38;5079810;28;20040;-77
2022/08/22 07:34:26;;;;;;;4.53;2.00;;;;;;;-145.81;100.00;62408.38;5063333;28;20371;-77
2022/08/22 07:37:02;;;;;;;5.15;1.85;;;;;;;-145.81;100.00;62408.38;5038225;28;20047;-78
2022/08/22 07:39:39;;;;;;;5.20;1.80;;;;;;;-145.81;100.00;62408.38;5070201;28;20082;-77
2022/08/22 07:42:23;;;;;;;10.68;2.45;;;;;;;-145.81;100.00;62408.38;5047816;28;20096;-77
2022/08/22 07:45:01;;;;;;;7.03;2.40;;;;;;;-145.81;100.00;62408.38;5049560;28;20101;-77
2022/08/22 07:48:05;;;;;;;5.63;1.80;;;;;;;-145.81;100.00;62408.38;5079438;28;20032;-79
2022/08/22 07:50:38;;;;;;;8.13;2.25;;;;;;;-145.81;100.00;62408.38;5016827;28;20036;-77
2022/08/22 07:53:17;;;;;;;7.40;2.80;;;;;;;-145.81;100.00;62408.38;5061664;28;20035;-76
2022/08/22 07:55:44;;;;;;;7.65;2.83;;;;;;;-145.81;100.00;62408.38;5070882;28;20067;-78
2022/08/22 07:58:12;;;;;;;6.35;2.20;;;;;;;-145.81;100.00;62408.38;5076622;28;20016;-76
2022/08/22 08:00:44;;;;;;;7.88;2.08;;;;;;;-145.81;100.00;62408.38;5079875;28;20060;-77
2022/08/22 08:03:11;;;;;;;10.00;2.30;;;;;;;-145.81;100.00;62408.38;5084257;28;20028;-79
2022/08/22 08:05:40;;;;;;;9.43;2.38;;;;;;;-145.81;100.00;62408.38;5066246;28;20029;-76
2022/08/22 08:08:27;;;;;;;8.75;2.38;;;;;;;-145.81;100.00;62408.38;5053330;28;20032;-76
2022/08/22 08:10:56;;;;;;;4.55;1.80;;;;;;;-145.81;100.00;62408.38;5074595;28;20132;-76
2022/08/22 08:13:28;;;;;;;8.85;2.17;;;;;;;-145.81;100.00;62408.38;5081164;28;20473;-77
2022/08/22 08:15:54;;;;;;;9.05;2.97;;;;;;;-145.81;100.00;62408.38;5074790;28;20405;-78
2022/08/22 08:18:24;;;;;;;9.15;2.15;;;;;;;-145.81;100.00;62408.38;5080294;28;20024;-77
2022/08/22 08:20:53;;;;;;;13.05;2.67;;;;;;;-145.81;100.00;62408.38;5043439;28;20465;-76
2022/08/22 08:23:20;;;;;;;8.88;2.00;;;;;;;-145.81;100.00;62408.38;5071601;28;20034;-78
2022/08/22 08:26:11;;;;;;;5.32;2.30;;;;;;;-145.81;100.00;62408.38;5053844;28;20451;-79
2022/08/22 08:28:41;;;;;;;8.80;2.22;;;;;;;-145.81;100.00;62408.38;5061504;28;20451;-76
2022/08/22 08:31:28;;;;;;;8.35;3.00;;;;;;;-145.81;100.00;62408.38;5062550;28;20046;-76
2022/08/22 08:34:02;;;;;;;12.02;2.88;;;;;;;-145.81;100.00;62408.38;5044181;28;20397;-77
2022/08/22 08:36:49;;;;;;;8.93;3.00;;;;;;;-145.81;100.00;62408.38;5079293;28;20028;-76
2022/08/22 08:39:37;;;;;;;9.02;2.47;;;;;;;-145.81;100.00;62408.38;5079165;28;20035;-77
2022/08/22 08:42:23;;;;;;;9.23;2.85;;;;;;;-145.81;100.00;62408.38;5044776;28;20047;-77
2022/08/22 08:45:34;;;;;;;7.97;2.35;;;;;;;-145.81;100.00;62408.38;5043284;28;20093;-78
2022/08/22 08:48:06;;;;;;;8.90;2.13;;;;;;;-145.81;100.00;62408.38;5050931;28;20041;-78
2022/08/22 08:50:39;;;;;;;9.43;2.90;;;;;;;-145.81;100.00;62408.38;5068355;28;20090;-78
2022/08/22 08:53:25;;;;;;;9.07;2.95;;;;;;;-145.81;100.00;62408.38;5072393;28;20036;-78
2022/08/22 08:56:11;;;;;;;7.95;2.70;;;;;;;-145.81;100.00;62408.38;5061512;28;20496;-77
2022/08/22 08:58:40;;;;;;;13.48;3.08;;;;;;;-145.81;100.00;62408.38;5069222;28;20024;-78
2022/08/22 09:01:27;;;;;;;8.18;2.38;;;;;;;-145.81;100.00;62408.38;5055829;28;20021;-78
2022/08/22 09:04:10;;;;;;;10.25;2.80;;;;;;;-145.81;100.00;62408.38;5066233;28;20036;-78
2022/08/22 09:06:51;;;;;;;10.73;2.58;;;;;;;-145.81;100.00;62408.38;5068999;28;20028;-76
2022/08/22 09:09:23;;;;;;;8.85;2.42;;;;;;;-145.81;100.00;62408.38;5052827;28;20040;-75
2022/08/22 09:12:07;;;;;;;7.03;3.08;;;;;;;-145.81;100.00;62408.38;5052792;28;20028;-78
2022/08/22 09:15:11;;;;;;;6.70;2.47;;;;;;;-145.81;100.00;62408.38;5057148;28;20032;-77
2022/08/22 09:18:06;;;;;;;8.07;2.70;;;;;;;-145.81;100.00;62408.38;5057820;28;20025;-77
2022/08/22 09:21:01;;;;;;;7.47;2.42;;;;;;;-145.81;100.00;62408.38;5059685;28;20107;-78
2022/08/22 09:24:00;;;;;;;9.40;2.80;;;;;;;-145.81;100.00;62408.38;5050450;28;20093;-79
2022/08/22 09:26:49;;;;;;;6.25;2.33;;;;;;;-145.81;100.00;62408.38;5059412;28;20044;-77
2022/08/22 09:29:27;;;;;;;8.88;2.55;;;;;;;-145.81;100.00;62408.38;5077885;28;20047;-78
2022/08/22 09:32:00;;;;;;;7.38;2.63;;;;;;;-145.81;100.00;62408.38;5054566;28;20123;-77
2022/08/22 09:34:39;;;;;;;10.20;2.97;;;;;;;-145.81;100.00;62408.38;5068474;28;20028;-80
2022/08/22 09:37:20;;;;;;;7.43;2.35;;;;;;;-145.81;100.00;62408.38;5066287;28;20067;-78
2022/08/22 09:40:14;;;;;;;8.25;2.42;;;;;;;-145.81;100.00;62408.38;5066499;28;20025;-76
2022/08/22 09:43:01;;;;;;;9.38;2.78;;;;;;;-145.81;100.00;62408.38;5058837;28;20420;-77
2022/08/22 09:45:45;;;;;;;8.38;2.85;;;;;;;-145.81;100.00;62408.38;5041610;28;20407;-78
2022/08/22 09:48:35;;;;;;;7.40;2.28;;;;;;;-145.81;100.00;62408.38;5051504;28;20036;-77
2022/08/22 09:51:33;;;;;;;8.52;2.33;;;;;;;-145.81;100.00;62408.38;5049014;28;20038;-78
2022/08/22 09:54:23;;;;;;;9.77;2.58;;;;;;;-145.81;100.00;62408.38;5053007;28;20044;-77
2022/08/22 09:57:14;;;;;;;6.93;1.85;;;;;;;-145.81;100.00;62408.38;5054218;28;20025;-78
2022/08/22 09:59:57;;;;;;;8.27;2.60;;;;;;;-145.81;100.00;62408.38;5063438;28;20028;-80
2022/08/22 10:02:30;;;;;;;8.68;2.85;;;;;;;-145.81;100.00;62408.38;5058640;28;20041;-79
2022/08/22 10:05:23;;;;;;;11.20;2.85;;;;;;;-145.81;100.00;62408.38;5074078;28;20109;-78
2022/08/22 10:08:00;;;;;;;4.55;2.28;;;;;;;-145.81;100.00;62408.38;5044001;28;20039;-77
2022/08/22 10:10:56;;;;;;;9.40;2.30;;;;;;;-145.81;100.00;62408.38;5035013;28;20083;-76
2022/08/22 10:13:27;;;;;;;;;;;;;;;-145.81;100.00;62408.38;5039033;28;20040;-78
2022/08/22 10:16:09;;;;;;;6.28;3.35;;;;;;;-145.81;100.00;62408.38;5047444;28;20044;-77
2022/08/22 10:18:42;;;;;;;8.90;2.60;;;;;;;-145.81;100.00;62408.38;5052810;28;20031;-78
2022/08/22 10:21:21;;;;;;;5.93;2.20;;;;;;;-145.81;100.00;62408.38;5062076;28;20040;-77
2022/08/22 10:23:55;;;;;;;6.82;2.63;;;;;;;-145.81;100.00;62408.38;5048605;28;20111;-77
2022/08/22 10:26:36;;;;;;;9.25;2.75;;;;;;;-145.81;100.00;62408.38;5041316;28;20064;-76
2022/08/22 10:29:48;;;;;;;8.70;2.53;;;;;;;-145.81;100.00;62408.38;5070746;28;20040;-77
2022/08/22 10:32:35;;;;;;;5.70;2.63;;;;;;;-145.81;100.00;62408.38;5057760;28;20064;-79
2022/08/22 10:35:23;;;;;;;9.13;2.45;;;;;;;-145.81;100.00;62408.38;5077483;28;20265;-75
2022/08/22 10:37:58;;;;;;;8.20;3.25;;;;;;;-145.81;100.00;62408.38;5087491;28;20051;-77
2022/08/22 10:40:37;;;;;;;6.10;2.38;;;;;;;-145.81;100.00;62408.38;5061338;28;20071;-79
2022/08/22 10:43:15;;;;;;;7.93;2.08;;;;;;;-145.81;100.00;62408.38;5044553;28;20052;-79
2022/08/22 10:45:49;;;;;;;5.97;2.42;;;;;;;-145.81;100.00;62408.38;5072613;28;20208;-76
2022/08/22 10:48:33;;;;;;;8.52;3.13;;;;;;;-145.81;100.00;62408.38;5072593;28;20037;-78
2022/08/22 10:51:09;;;;;;;8.10;3.97;;;;;;;-145.81;100.00;62408.38;5054902;28;20405;-78
2022/08/22 10:53:57;;;;;;;5.07;2.70;;;;;;;-145.81;100.00;62408.38;5053382;28;20063;-77
2022/08/22 10:56:47;;;;;;;7.68;3.25;;;;;;;-145.81;100.00;62408.38;5073319;28;20035;-79
2022/08/22 10:59:31;;;;;;;7.75;2.42;;;;;;;-145.81;100.00;62408.38;5050744;28;20028;-77
2022/08/22 11:02:27;;;;;;;7.72;2.78;;;;;;;-145.81;100.00;62408.38;5051219;28;20056;-79
2022/08/22 11:04:55;;;;;;;11.25;2.90;;;;;;;-145.81;100.00;62408.38;5063926;28;20052;-78
2022/08/22 11:07:52;;;;;;;12.52;3.03;;;;;;;-145.81;100.00;62408.38;5071937;28;20907;-76
2022/08/22 11:10:22;;;;;;;9.05;2.50;;;;;;;-145.81;100.00;62408.38;5052903;28;20041;-77
2022/08/22 11:13:17;;;;;;;6.53;2.72;;;;;;;-145.81;100.00;62408.38;5048468;28;20090;-77
2022/08/22 11:16:20;;;;;;;9.35;2.33;;;;;;;-145.81;100.00;62408.38;5055838;28;20056;-78
2022/08/22 11:18:56;;;;;;;5.40;2.92;;;;;;;-145.81;100.00;62408.38;5062026;28;20040;-76
2022/08/22 11:21:30;;;;;;;8.80;2.83;;;;;;;-145.81;100.00;62408.38;5051232;28;20090;-77
2022/08/22 11:24:07;;;;;;;8.35;3.10;;;;;;;-145.81;100.00;62408.38;5061421;28;20033;-77
2022/08/22 11:27:01;;;;;;;7.05;2.60;;;;;;;-145.81;100.00;62408.38;5066099;28;20041;-79
2022/08/22 11:30:04;;;;;;;6.20;2.72;;;;;;;-145.81;100.00;62408.38;5048661;28;20032;-78
2022/08/22 11:32:43;;;;;;;4.28;2.05;;;;;;;-145.81;100.00;62408.38;5074597;28;20028;-77
2022/08/22 11:35:36;;;;;;;5.60;2.20;;;;;;;-145.81;100.00;62408.38;5057450;28;20531;-77
2022/08/22 11:38:16;;;;;;;12.25;3.15;;;;;;;-145.81;100.00;62408.38;5069402;28;20041;-77
2022/08/22 11:40:57;;;;;;;10.20;2.97;;;;;;;-145.81;100.00;62408.38;5057856;28;20067;-79
2022/08/22 11:43:34;;;;;;;7.35;2.60;;;;;;;-145.81;100.00;62408.38;5047814;28;20128;-79
2022/08/22 11:46:16;;;;;;;10.93;3.13;;;;;;;-145.81;100.00;62408.38;5052562;28;20036;-77
2022/08/22 11:48:45;;;;;;;9.27;2.75;;;;;;;-145.81;100.00;62408.38;5030873;28;20174;-77
2022/08/22 11:51:29;;;;;;;8.07;3.53;;;;;;;-145.81;100.00;62408.38;5048820;28;20021;-78
2022/08/22 11:54:19;;;;;;;9.48;2.75;;;;;;;-145.81;100.00;62408.38;5065615;28;20086;-78
2022/08/22 11:56:58;;;;;;;7.93;2.35;;;;;;;-145.81;100.00;62408.38;5054955;28;20036;-78
2022/08/22 11:59:40;;;;;;;8.02;2.47;;;;;;;-145.81;100.00;62408.38;5058094;28;20507;-79
2022/08/22 12:02:20;;;;;;;12.23;3.38;;;;;;;-145.81;100.00;62408.38;5046206;28;20063;-78
2022/08/22 12:04:53;;;;;;;7.75;3.33;;;;;;;-145.81;100.00;62408.38;5072028;28;20940;-75
2022/08/22 12:07:30;;;;;;;14.88;2.88;;;;;;;-145.81;100.00;62408.38;5047772;28;20056;-79
2022/08/22 12:10:02;;;;;;;11.45;3.08;;;;;;;-145.81;100.00;62408.38;5062418;28;20036;-76